Chenois Creek, Washington
Current Conditions -  °F | °C
As of 5:43 PM on Friday 21 Nov 2014 (Local Time) from KHQM Reporting Station
Light Rain Light Rain  
Wind Chill: 11°   Ceiling: 4300
Heat Index: 11°   Visibility: 7mi
Dew Point:   Wind: 15mph
Humidity: 92%   Direction: 260°W
Pressure: 29.37"   Gusts: NA
Location:  47.0202°N, 123.878°W
Report Text: KHQM 220143Z AUTO 26013KT 7SM -RA FEW014 SCT022 OVC043 11/09 A2937 RMK AO2 P0003 T01060094
Loading
Personal Weather Stations






























Interactive Weather Map New forecast layout! Learn more

10-Day Weather Forecast

Advertisements
Track Severe Weather on mobile